sensor_id;sensor_type;location;lat;lon;timestamp;P1;durP1;ratioP1;P2;durP2;ratioP2
13651;SDS011;6899;51.546;6.912;2022-07-10T00:00:17;4.03;;;2.10;;
13651;SDS011;6899;51.546;6.912;2022-07-10T00:02:46;3.83;;;2.10;;
13651;SDS011;6899;51.546;6.912;2022-07-10T00:05:13;3.83;;;2.15;;
13651;SDS011;6899;51.546;6.912;2022-07-10T00:07:39;6.30;;;2.33;;
13651;SDS011;6899;51.546;6.912;2022-07-10T00:10:08;10.00;;;2.60;;
13651;SDS011;6899;51.546;6.912;2022-07-10T00:12:35;6.05;;;1.92;;
13651;SDS011;6899;51.546;6.912;2022-07-10T00:15:02;5.88;;;2.15;;
13651;SDS011;6899;51.546;6.912;2022-07-10T00:17:30;3.65;;;2.28;;
13651;SDS011;6899;51.546;6.912;2022-07-10T00:19:56;4.15;;;1.85;;
13651;SDS011;6899;51.546;6.912;2022-07-10T00:22:26;7.15;;;2.08;;
13651;SDS011;6899;51.546;6.912;2022-07-10T00:24:56;3.67;;;2.45;;
13651;SDS011;6899;51.546;6.912;2022-07-10T00:27:24;5.28;;;1.92;;
13651;SDS011;6899;51.546;6.912;2022-07-10T00:29:51;5.53;;;2.63;;
13651;SDS011;6899;51.546;6.912;2022-07-10T00:32:18;6.85;;;2.50;;
13651;SDS011;6899;51.546;6.912;2022-07-10T00:34:45;5.63;;;1.83;;
13651;SDS011;6899;51.546;6.912;2022-07-10T00:37:12;3.97;;;1.80;;
13651;SDS011;6899;51.546;6.912;2022-07-10T00:39:39;5.53;;;2.03;;
13651;SDS011;6899;51.546;6.912;2022-07-10T00:42:06;2.83;;;1.83;;
13651;SDS011;6899;51.546;6.912;2022-07-10T00:44:36;7.00;;;2.88;;
13651;SDS011;6899;51.546;6.912;2022-07-10T00:47:03;7.55;;;2.45;;
13651;SDS011;6899;51.546;6.912;2022-07-10T00:49:30;5.07;;;1.67;;
13651;SDS011;6899;51.546;6.912;2022-07-10T00:51:58;5.03;;;2.10;;
13651;SDS011;6899;51.546;6.912;2022-07-10T00:54:26;3.65;;;2.03;;
13651;SDS011;6899;51.546;6.912;2022-07-10T00:56:53;3.08;;;1.50;;
13651;SDS011;6899;51.546;6.912;2022-07-10T00:59:21;2.58;;;1.77;;
13651;SDS011;6899;51.546;6.912;2022-07-10T01:01:50;2.30;;;1.42;;
13651;SDS011;6899;51.546;6.912;2022-07-10T01:04:17;5.72;;;1.98;;
13651;SDS011;6899;51.546;6.912;2022-07-10T01:06:44;4.50;;;1.70;;
13651;SDS011;6899;51.546;6.912;2022-07-10T01:09:11;3.67;;;1.60;;
13651;SDS011;6899;51.546;6.912;2022-07-10T01:11:38;4.28;;;2.08;;
13651;SDS011;6899;51.546;6.912;2022-07-10T01:14:05;5.53;;;1.65;;
13651;SDS011;6899;51.546;6.912;2022-07-10T01:16:32;3.92;;;1.80;;
13651;SDS011;6899;51.546;6.912;2022-07-10T01:19:02;3.13;;;1.60;;
13651;SDS011;6899;51.546;6.912;2022-07-10T01:21:32;5.38;;;2.40;;
13651;SDS011;6899;51.546;6.912;2022-07-10T01:24:03;2.38;;;1.70;;
13651;SDS011;6899;51.546;6.912;2022-07-10T01:26:32;4.35;;;1.50;;
13651;SDS011;6899;51.546;6.912;2022-07-10T01:29:00;3.80;;;1.75;;
13651;SDS011;6899;51.546;6.912;2022-07-10T01:31:29;8.52;;;2.25;;
13651;SDS011;6899;51.546;6.912;2022-07-10T01:33:56;4.55;;;1.60;;
13651;SDS011;6899;51.546;6.912;2022-07-10T01:36:24;4.60;;;1.77;;
13651;SDS011;6899;51.546;6.912;2022-07-10T01:38:53;6.97;;;1.95;;
13651;SDS011;6899;51.546;6.912;2022-07-10T01:41:22;5.45;;;1.48;;
13651;SDS011;6899;51.546;6.912;2022-07-10T01:43:49;3.70;;;1.65;;
13651;SDS011;6899;51.546;6.912;2022-07-10T01:46:16;3.35;;;1.92;;
13651;SDS011;6899;51.546;6.912;2022-07-10T01:48:44;4.75;;;1.70;;
13651;SDS011;6899;51.546;6.912;2022-07-10T01:51:11;5.03;;;1.85;;
13651;SDS011;6899;51.546;6.912;2022-07-10T01:53:38;2.55;;;1.40;;
13651;SDS011;6899;51.546;6.912;2022-07-10T01:56:08;4.68;;;1.58;;
13651;SDS011;6899;51.546;6.912;2022-07-10T01:58:36;3.90;;;2.17;;
13651;SDS011;6899;51.546;6.912;2022-07-10T02:01:04;5.82;;;1.80;;
13651;SDS011;6899;51.546;6.912;2022-07-10T02:03:32;6.35;;;2.13;;
13651;SDS011;6899;51.546;6.912;2022-07-10T02:06:17;4.65;;;1.80;;
13651;SDS011;6899;51.546;6.912;2022-07-10T02:08:44;2.13;;;1.42;;
13651;SDS011;6899;51.546;6.912;2022-07-10T02:11:12;2.38;;;1.48;;
13651;SDS011;6899;51.546;6.912;2022-07-10T02:13:40;2.65;;;1.60;;
13651;SDS011;6899;51.546;6.912;2022-07-10T02:16:07;3.75;;;2.10;;
13651;SDS011;6899;51.546;6.912;2022-07-10T02:18:34;4.25;;;1.65;;
13651;SDS011;6899;51.546;6.912;2022-07-10T02:21:01;6.50;;;2.35;;
13651;SDS011;6899;51.546;6.912;2022-07-10T02:23:28;2.88;;;1.92;;
13651;SDS011;6899;51.546;6.912;2022-07-10T02:25:55;5.30;;;1.98;;
13651;SDS011;6899;51.546;6.912;2022-07-10T02:28:23;4.00;;;2.10;;
13651;SDS011;6899;51.546;6.912;2022-07-10T02:30:50;3.75;;;1.70;;
13651;SDS011;6899;51.546;6.912;2022-07-10T02:33:17;5.68;;;2.20;;
13651;SDS011;6899;51.546;6.912;2022-07-10T02:35:44;2.78;;;1.67;;
13651;SDS011;6899;51.546;6.912;2022-07-10T02:38:11;4.63;;;2.03;;
13651;SDS011;6899;51.546;6.912;2022-07-10T02:40:38;4.63;;;2.70;;
13651;SDS011;6899;51.546;6.912;2022-07-10T02:43:04;4.68;;;2.22;;
13651;SDS011;6899;51.546;6.912;2022-07-10T02:45:33;5.32;;;2.40;;
13651;SDS011;6899;51.546;6.912;2022-07-10T02:47:59;4.20;;;2.08;;
13651;SDS011;6899;51.546;6.912;2022-07-10T02:50:27;3.72;;;2.40;;
13651;SDS011;6899;51.546;6.912;2022-07-10T02:52:54;4.65;;;1.77;;
13651;SDS011;6899;51.546;6.912;2022-07-10T02:55:21;5.72;;;2.65;;
13651;SDS011;6899;51.546;6.912;2022-07-10T02:57:50;4.22;;;2.20;;
13651;SDS011;6899;51.546;6.912;2022-07-10T03:00:16;4.38;;;2.03;;
13651;SDS011;6899;51.546;6.912;2022-07-10T03:02:45;3.90;;;2.15;;
13651;SDS011;6899;51.546;6.912;2022-07-10T03:05:12;4.85;;;1.90;;
13651;SDS011;6899;51.546;6.912;2022-07-10T03:07:39;3.15;;;1.83;;
13651;SDS011;6899;51.546;6.912;2022-07-10T03:10:06;4.05;;;1.77;;
13651;SDS011;6899;51.546;6.912;2022-07-10T03:12:33;5.47;;;2.50;;
13651;SDS011;6899;51.546;6.912;2022-07-10T03:15:00;5.22;;;2.53;;
13651;SDS011;6899;51.546;6.912;2022-07-10T03:17:29;4.57;;;2.05;;
13651;SDS011;6899;51.546;6.912;2022-07-10T03:19:58;4.05;;;2.10;;
13651;SDS011;6899;51.546;6.912;2022-07-10T03:22:25;6.43;;;2.35;;
13651;SDS011;6899;51.546;6.912;2022-07-10T03:24:52;8.93;;;2.30;;
13651;SDS011;6899;51.546;6.912;2022-07-10T03:27:18;4.97;;;2.05;;
13651;SDS011;6899;51.546;6.912;2022-07-10T03:29:45;6.50;;;1.95;;
13651;SDS011;6899;51.546;6.912;2022-07-10T03:32:12;5.63;;;2.28;;
13651;SDS011;6899;51.546;6.912;2022-07-10T03:34:39;9.63;;;2.38;;
13651;SDS011;6899;51.546;6.912;2022-07-10T03:37:07;7.82;;;2.15;;
13651;SDS011;6899;51.546;6.912;2022-07-10T03:39:34;4.80;;;2.10;;
13651;SDS011;6899;51.546;6.912;2022-07-10T03:42:01;3.97;;;1.95;;
13651;SDS011;6899;51.546;6.912;2022-07-10T03:44:28;4.40;;;2.00;;
13651;SDS011;6899;51.546;6.912;2022-07-10T03:46:55;7.18;;;2.22;;
13651;SDS011;6899;51.546;6.912;2022-07-10T03:49:21;5.55;;;2.08;;
13651;SDS011;6899;51.546;6.912;2022-07-10T03:51:48;3.25;;;1.98;;
13651;SDS011;6899;51.546;6.912;2022-07-10T03:54:17;4.43;;;2.25;;
13651;SDS011;6899;51.546;6.912;2022-07-10T03:56:43;5.53;;;2.30;;
13651;SDS011;6899;51.546;6.912;2022-07-10T03:59:28;8.00;;;2.42;;
13651;SDS011;6899;51.546;6.912;2022-07-10T04:01:55;7.30;;;2.58;;
13651;SDS011;6899;51.546;6.912;2022-07-10T04:04:22;7.70;;;2.25;;
13651;SDS011;6899;51.546;6.912;2022-07-10T04:06:49;8.57;;;2.42;;
13651;SDS011;6899;51.546;6.912;2022-07-10T04:09:17;9.07;;;2.53;;
13651;SDS011;6899;51.546;6.912;2022-07-10T04:11:44;6.63;;;2.17;;
13651;SDS011;6899;51.546;6.912;2022-07-10T04:14:11;5.15;;;2.25;;
13651;SDS011;6899;51.546;6.912;2022-07-10T04:16:37;7.30;;;2.10;;
13651;SDS011;6899;51.546;6.912;2022-07-10T04:19:04;6.22;;;2.58;;
13651;SDS011;6899;51.546;6.912;2022-07-10T04:21:31;8.95;;;2.25;;
13651;SDS011;6899;51.546;6.912;2022-07-10T04:23:58;4.55;;;1.90;;
13651;SDS011;6899;51.546;6.912;2022-07-10T04:26:26;4.10;;;2.10;;
13651;SDS011;6899;51.546;6.912;2022-07-10T04:28:53;3.92;;;2.15;;
13651;SDS011;6899;51.546;6.912;2022-07-10T04:31:20;5.03;;;1.88;;
13651;SDS011;6899;51.546;6.912;2022-07-10T04:33:47;3.85;;;2.30;;
13651;SDS011;6899;51.546;6.912;2022-07-10T04:36:14;4.20;;;2.10;;
13651;SDS011;6899;51.546;6.912;2022-07-10T04:38:41;7.35;;;2.83;;
13651;SDS011;6899;51.546;6.912;2022-07-10T04:41:08;6.93;;;2.15;;
13651;SDS011;6899;51.546;6.912;2022-07-10T04:43:36;3.63;;;2.05;;
13651;SDS011;6899;51.546;6.912;2022-07-10T04:46:03;6.75;;;2.60;;
13651;SDS011;6899;51.546;6.912;2022-07-10T04:48:32;6.80;;;2.33;;
13651;SDS011;6899;51.546;6.912;2022-07-10T04:50:59;6.70;;;1.80;;
13651;SDS011;6899;51.546;6.912;2022-07-10T04:53:26;6.70;;;2.67;;
13651;SDS011;6899;51.546;6.912;2022-07-10T04:55:53;7.82;;;2.10;;
13651;SDS011;6899;51.546;6.912;2022-07-10T04:58:19;6.20;;;2.40;;
13651;SDS011;6899;51.546;6.912;2022-07-10T05:00:48;3.72;;;1.98;;
13651;SDS011;6899;51.546;6.912;2022-07-10T05:03:15;6.60;;;2.20;;
13651;SDS011;6899;51.546;6.912;2022-07-10T05:05:42;3.53;;;1.95;;
13651;SDS011;6899;51.546;6.912;2022-07-10T05:08:09;5.68;;;2.17;;
13651;SDS011;6899;51.546;6.912;2022-07-10T05:10:36;8.00;;;2.70;;
13651;SDS011;6899;51.546;6.912;2022-07-10T05:13:05;4.13;;;2.00;;
13651;SDS011;6899;51.546;6.912;2022-07-10T05:15:31;7.07;;;2.00;;
13651;SDS011;6899;51.546;6.912;2022-07-10T05:18:00;7.20;;;2.08;;
13651;SDS011;6899;51.546;6.912;2022-07-10T05:20:27;3.35;;;1.70;;
13651;SDS011;6899;51.546;6.912;2022-07-10T05:22:53;3.60;;;1.63;;
13651;SDS011;6899;51.546;6.912;2022-07-10T05:25:21;2.83;;;1.60;;
13651;SDS011;6899;51.546;6.912;2022-07-10T05:27:48;6.18;;;1.80;;
13651;SDS011;6899;51.546;6.912;2022-07-10T05:30:15;3.58;;;1.48;;
13651;SDS011;6899;51.546;6.912;2022-07-10T05:32:42;4.40;;;1.80;;
13651;SDS011;6899;51.546;6.912;2022-07-10T05:35:11;3.72;;;1.55;;
13651;SDS011;6899;51.546;6.912;2022-07-10T05:37:38;7.45;;;1.98;;
13651;SDS011;6899;51.546;6.912;2022-07-10T05:40:05;3.47;;;1.80;;
13651;SDS011;6899;51.546;6.912;2022-07-10T05:42:33;4.10;;;1.70;;
13651;SDS011;6899;51.546;6.912;2022-07-10T05:45:00;4.95;;;1.83;;
13651;SDS011;6899;51.546;6.912;2022-07-10T05:47:28;3.30;;;1.50;;
13651;SDS011;6899;51.546;6.912;2022-07-10T05:49:55;3.55;;;1.50;;
13651;SDS011;6899;51.546;6.912;2022-07-10T05:52:23;5.88;;;1.58;;
13651;SDS011;6899;51.546;6.912;2022-07-10T05:54:50;7.10;;;1.92;;
13651;SDS011;6899;51.546;6.912;2022-07-10T05:57:17;4.35;;;2.08;;
13651;SDS011;6899;51.546;6.912;2022-07-10T05:59:44;6.15;;;1.88;;
13651;SDS011;6899;51.546;6.912;2022-07-10T06:02:11;3.85;;;2.00;;
13651;SDS011;6899;51.546;6.912;2022-07-10T06:04:37;4.03;;;1.73;;
13651;SDS011;6899;51.546;6.912;2022-07-10T06:07:04;4.43;;;2.00;;
13651;SDS011;6899;51.546;6.912;2022-07-10T06:09:33;6.43;;;1.90;;
13651;SDS011;6899;51.546;6.912;2022-07-10T06:12:00;5.55;;;2.10;;
13651;SDS011;6899;51.546;6.912;2022-07-10T06:14:26;5.38;;;1.85;;
13651;SDS011;6899;51.546;6.912;2022-07-10T06:16:53;6.88;;;1.85;;
13651;SDS011;6899;51.546;6.912;2022-07-10T06:19:20;5.78;;;1.52;;
13651;SDS011;6899;51.546;6.912;2022-07-10T06:21:47;5.35;;;2.28;;
13651;SDS011;6899;51.546;6.912;2022-07-10T06:24:35;4.72;;;1.60;;
13651;SDS011;6899;51.546;6.912;2022-07-10T06:27:02;5.88;;;2.08;;
13651;SDS011;6899;51.546;6.912;2022-07-10T06:29:30;3.17;;;1.75;;
13651;SDS011;6899;51.546;6.912;2022-07-10T06:31:57;3.22;;;1.90;;
13651;SDS011;6899;51.546;6.912;2022-07-10T06:34:23;8.57;;;1.85;;
13651;SDS011;6899;51.546;6.912;2022-07-10T06:36:50;4.07;;;1.85;;
13651;SDS011;6899;51.546;6.912;2022-07-10T06:39:17;1.75;;;1.23;;
13651;SDS011;6899;51.546;6.912;2022-07-10T06:41:45;5.55;;;1.85;;
13651;SDS011;6899;51.546;6.912;2022-07-10T06:44:12;5.85;;;1.90;;
13651;SDS011;6899;51.546;6.912;2022-07-10T06:46:39;4.80;;;1.73;;
13651;SDS011;6899;51.546;6.912;2022-07-10T06:49:06;4.45;;;2.17;;
13651;SDS011;6899;51.546;6.912;2022-07-10T06:51:32;6.68;;;2.10;;
13651;SDS011;6899;51.546;6.912;2022-07-10T06:53:59;4.30;;;2.00;;
13651;SDS011;6899;51.546;6.912;2022-07-10T06:56:26;4.30;;;2.10;;
13651;SDS011;6899;51.546;6.912;2022-07-10T06:58:54;5.25;;;1.55;;
13651;SDS011;6899;51.546;6.912;2022-07-10T07:01:21;8.07;;;2.13;;
13651;SDS011;6899;51.546;6.912;2022-07-10T07:03:48;4.50;;;1.92;;
13651;SDS011;6899;51.546;6.912;2022-07-10T07:06:15;6.78;;;1.80;;
13651;SDS011;6899;51.546;6.912;2022-07-10T07:08:42;6.65;;;2.00;;
13651;SDS011;6899;51.546;6.912;2022-07-10T07:11:09;5.45;;;2.13;;
13651;SDS011;6899;51.546;6.912;2022-07-10T07:13:35;5.40;;;1.83;;
13651;SDS011;6899;51.546;6.912;2022-07-10T07:16:04;6.18;;;1.60;;
13651;SDS011;6899;51.546;6.912;2022-07-10T07:18:34;6.15;;;1.77;;
13651;SDS011;6899;51.546;6.912;2022-07-10T07:21:12;4.72;;;2.10;;
13651;SDS011;6899;51.546;6.912;2022-07-10T07:23:56;6.18;;;2.15;;
13651;SDS011;6899;51.546;6.912;2022-07-10T07:26:23;4.80;;;1.83;;
13651;SDS011;6899;51.546;6.912;2022-07-10T07:28:50;4.88;;;1.90;;
13651;SDS011;6899;51.546;6.912;2022-07-10T07:31:18;6.13;;;1.98;;
13651;SDS011;6899;51.546;6.912;2022-07-10T07:33:45;8.10;;;1.80;;
13651;SDS011;6899;51.546;6.912;2022-07-10T07:36:12;4.53;;;1.70;;
13651;SDS011;6899;51.546;6.912;2022-07-10T07:38:39;3.67;;;1.73;;
13651;SDS011;6899;51.546;6.912;2022-07-10T07:41:06;4.45;;;1.70;;
13651;SDS011;6899;51.546;6.912;2022-07-10T07:43:33;6.55;;;2.20;;
13651;SDS011;6899;51.546;6.912;2022-07-10T07:46:00;3.83;;;1.70;;
13651;SDS011;6899;51.546;6.912;2022-07-10T07:48:29;7.05;;;2.03;;
13651;SDS011;6899;51.546;6.912;2022-07-10T07:50:55;7.38;;;2.17;;
13651;SDS011;6899;51.546;6.912;2022-07-10T07:53:23;6.13;;;2.60;;
13651;SDS011;6899;51.546;6.912;2022-07-10T07:55:49;5.68;;;2.30;;
13651;SDS011;6899;51.546;6.912;2022-07-10T07:58:16;5.40;;;2.20;;
13651;SDS011;6899;51.546;6.912;2022-07-10T08:00:43;6.40;;;2.00;;
13651;SDS011;6899;51.546;6.912;2022-07-10T08:03:10;5.13;;;1.92;;
13651;SDS011;6899;51.546;6.912;2022-07-10T08:05:38;3.47;;;2.50;;
13651;SDS011;6899;51.546;6.912;2022-07-10T08:08:05;7.82;;;2.50;;
13651;SDS011;6899;51.546;6.912;2022-07-10T08:10:34;4.90;;;2.20;;
13651;SDS011;6899;51.546;6.912;2022-07-10T08:13:02;4.05;;;2.15;;
13651;SDS011;6899;51.546;6.912;2022-07-10T08:15:29;3.63;;;1.95;;
13651;SDS011;6899;51.546;6.912;2022-07-10T08:17:57;4.50;;;2.00;;
13651;SDS011;6899;51.546;6.912;2022-07-10T08:20:26;4.60;;;2.30;;
13651;SDS011;6899;51.546;6.912;2022-07-10T08:22:54;5.45;;;1.92;;
13651;SDS011;6899;51.546;6.912;2022-07-10T08:25:21;7.65;;;2.33;;
13651;SDS011;6899;51.546;6.912;2022-07-10T08:27:48;6.50;;;2.67;;
13651;SDS011;6899;51.546;6.912;2022-07-10T08:30:15;5.50;;;3.17;;
13651;SDS011;6899;51.546;6.912;2022-07-10T08:32:43;5.93;;;2.83;;
13651;SDS011;6899;51.546;6.912;2022-07-10T08:35:09;5.80;;;2.83;;
13651;SDS011;6899;51.546;6.912;2022-07-10T08:37:38;7.82;;;2.65;;
13651;SDS011;6899;51.546;6.912;2022-07-10T08:40:08;7.47;;;2.88;;
13651;SDS011;6899;51.546;6.912;2022-07-10T08:42:35;7.38;;;2.80;;
13651;SDS011;6899;51.546;6.912;2022-07-10T08:45:03;6.75;;;2.72;;
13651;SDS011;6899;51.546;6.912;2022-07-10T08:47:30;8.52;;;2.88;;
13651;SDS011;6899;51.546;6.912;2022-07-10T08:50:00;7.97;;;2.70;;
13651;SDS011;6899;51.546;6.912;2022-07-10T08:52:30;7.25;;;2.63;;
13651;SDS011;6899;51.546;6.912;2022-07-10T08:54:59;6.70;;;2.47;;
13651;SDS011;6899;51.546;6.912;2022-07-10T08:57:29;4.70;;;2.40;;
13651;SDS011;6899;51.546;6.912;2022-07-10T08:59:57;3.88;;;2.35;;
13651;SDS011;6899;51.546;6.912;2022-07-10T09:02:24;7.43;;;2.92;;
13651;SDS011;6899;51.546;6.912;2022-07-10T09:04:51;4.70;;;3.17;;
13651;SDS011;6899;51.546;6.912;2022-07-10T09:07:18;6.07;;;2.55;;
13651;SDS011;6899;51.546;6.912;2022-07-10T09:09:52;5.13;;;2.13;;
13651;SDS011;6899;51.546;6.912;2022-07-10T09:12:23;3.78;;;1.90;;
13651;SDS011;6899;51.546;6.912;2022-07-10T09:14:52;4.35;;;2.08;;
13651;SDS011;6899;51.546;6.912;2022-07-10T09:17:19;7.18;;;2.20;;
13651;SDS011;6899;51.546;6.912;2022-07-10T09:19:46;4.50;;;1.90;;
13651;SDS011;6899;51.546;6.912;2022-07-10T09:22:14;4.35;;;2.20;;
13651;SDS011;6899;51.546;6.912;2022-07-10T09:24:42;4.38;;;1.95;;
13651;SDS011;6899;51.546;6.912;2022-07-10T09:27:11;3.65;;;1.80;;
13651;SDS011;6899;51.546;6.912;2022-07-10T09:29:49;5.05;;;1.90;;
13651;SDS011;6899;51.546;6.912;2022-07-10T09:32:21;6.00;;;2.28;;
13651;SDS011;6899;51.546;6.912;2022-07-10T09:34:49;6.30;;;2.47;;
13651;SDS011;6899;51.546;6.912;2022-07-10T09:37:38;6.88;;;3.10;;
13651;SDS011;6899;51.546;6.912;2022-07-10T09:40:06;9.13;;;3.20;;
13651;SDS011;6899;51.546;6.912;2022-07-10T09:42:34;5.65;;;2.97;;
13651;SDS011;6899;51.546;6.912;2022-07-10T09:45:18;8.52;;;3.55;;
13651;SDS011;6899;51.546;6.912;2022-07-10T09:47:53;7.82;;;3.53;;
13651;SDS011;6899;51.546;6.912;2022-07-10T09:50:22;6.28;;;3.22;;
13651;SDS011;6899;51.546;6.912;2022-07-10T09:52:51;4.88;;;3.00;;
13651;SDS011;6899;51.546;6.912;2022-07-10T09:55:20;5.97;;;3.33;;
13651;SDS011;6899;51.546;6.912;2022-07-10T09:57:55;4.45;;;2.88;;
13651;SDS011;6899;51.546;6.912;2022-07-10T10:00:23;5.68;;;2.95;;
13651;SDS011;6899;51.546;6.912;2022-07-10T10:02:56;5.93;;;2.97;;
13651;SDS011;6899;51.546;6.912;2022-07-10T10:05:28;5.38;;;3.67;;
13651;SDS011;6899;51.546;6.912;2022-07-10T10:08:02;5.57;;;3.20;;
13651;SDS011;6899;51.546;6.912;2022-07-10T10:10:35;4.82;;;3.33;;
13651;SDS011;6899;51.546;6.912;2022-07-10T10:13:04;4.15;;;2.83;;
13651;SDS011;6899;51.546;6.912;2022-07-10T10:15:36;3.58;;;2.88;;
13651;SDS011;6899;51.546;6.912;2022-07-10T10:18:05;5.55;;;3.20;;
13651;SDS011;6899;51.546;6.912;2022-07-10T10:20:33;5.70;;;3.80;;
13651;SDS011;6899;51.546;6.912;2022-07-10T10:23:08;4.40;;;3.58;;
13651;SDS011;6899;51.546;6.912;2022-07-10T10:25:37;4.93;;;3.95;;
13651;SDS011;6899;51.546;6.912;2022-07-10T10:28:05;4.20;;;3.70;;
13651;SDS011;6899;51.546;6.912;2022-07-10T10:30:35;4.03;;;3.60;;
13651;SDS011;6899;51.546;6.912;2022-07-10T10:33:09;6.18;;;4.00;;
13651;SDS011;6899;51.546;6.912;2022-07-10T10:36:10;4.90;;;3.42;;
13651;SDS011;6899;51.546;6.912;2022-07-10T10:41:28;3.78;;;3.03;;
13651;SDS011;6899;51.546;6.912;2022-07-10T10:47:02;2.72;;;2.40;;
13651;SDS011;6899;51.546;6.912;2022-07-10T10:52:27;2.50;;;2.30;;
13651;SDS011;6899;51.546;6.912;2022-07-10T10:55:07;3.17;;;2.50;;
13651;SDS011;6899;51.546;6.912;2022-07-10T10:57:38;3.70;;;2.45;;
13651;SDS011;6899;51.546;6.912;2022-07-10T11:00:11;3.35;;;2.22;;
13651;SDS011;6899;51.546;6.912;2022-07-10T11:02:41;2.50;;;2.20;;
13651;SDS011;6899;51.546;6.912;2022-07-10T11:14:05;1.77;;;1.60;;
13651;SDS011;6899;51.546;6.912;2022-07-10T11:16:32;2.38;;;1.40;;
13651;SDS011;6899;51.546;6.912;2022-07-10T11:19:00;2.97;;;1.40;;
13651;SDS011;6899;51.546;6.912;2022-07-10T11:21:28;1.20;;;1.10;;
13651;SDS011;6899;51.546;6.912;2022-07-10T11:24:01;2.20;;;1.52;;
13651;SDS011;6899;51.546;6.912;2022-07-10T11:26:34;1.30;;;1.20;;
13651;SDS011;6899;51.546;6.912;2022-07-10T11:29:02;1.73;;;1.10;;
13651;SDS011;6899;51.546;6.912;2022-07-10T11:31:31;1.98;;;0.95;;
13651;SDS011;6899;51.546;6.912;2022-07-10T11:34:03;1.80;;;1.00;;
13651;SDS011;6899;51.546;6.912;2022-07-10T11:36:30;0.88;;;0.88;;
13651;SDS011;6899;51.546;6.912;2022-07-10T11:38:58;1.77;;;1.05;;
13651;SDS011;6899;51.546;6.912;2022-07-10T11:41:28;1.42;;;1.20;;
13651;SDS011;6899;51.546;6.912;2022-07-10T11:43:56;4.78;;;1.52;;
13651;SDS011;6899;51.546;6.912;2022-07-10T11:46:26;2.53;;;1.38;;
13651;SDS011;6899;51.546;6.912;2022-07-10T11:48:53;5.10;;;1.83;;
13651;SDS011;6899;51.546;6.912;2022-07-10T11:51:22;3.40;;;1.70;;
13651;SDS011;6899;51.546;6.912;2022-07-10T11:53:58;2.70;;;1.85;;
13651;SDS011;6899;51.546;6.912;2022-07-10T11:56:28;1.90;;;1.58;;
13651;SDS011;6899;51.546;6.912;2022-07-10T11:58:57;2.67;;;1.80;;
13651;SDS011;6899;51.546;6.912;2022-07-10T12:01:26;5.47;;;1.95;;
13651;SDS011;6899;51.546;6.912;2022-07-10T12:03:58;3.67;;;2.00;;
13651;SDS011;6899;51.546;6.912;2022-07-10T12:06:26;2.25;;;1.75;;
13651;SDS011;6899;51.546;6.912;2022-07-10T12:08:54;3.33;;;2.05;;
13651;SDS011;6899;51.546;6.912;2022-07-10T12:11:21;4.63;;;2.30;;
13651;SDS011;6899;51.546;6.912;2022-07-10T12:13:51;3.00;;;2.20;;
13651;SDS011;6899;51.546;6.912;2022-07-10T12:16:19;4.30;;;2.10;;
13651;SDS011;6899;51.546;6.912;2022-07-10T12:18:48;4.30;;;2.40;;
13651;SDS011;6899;51.546;6.912;2022-07-10T12:21:15;7.25;;;2.75;;
13651;SDS011;6899;51.546;6.912;2022-07-10T12:23:45;5.40;;;2.40;;
13651;SDS011;6899;51.546;6.912;2022-07-10T12:26:13;9.15;;;2.85;;
13651;SDS011;6899;51.546;6.912;2022-07-10T12:28:52;4.90;;;2.38;;
13651;SDS011;6899;51.546;6.912;2022-07-10T12:31:24;4.25;;;2.38;;
13651;SDS011;6899;51.546;6.912;2022-07-10T12:33:53;3.15;;;2.00;;
13651;SDS011;6899;51.546;6.912;2022-07-10T12:36:23;4.20;;;1.90;;
13651;SDS011;6899;51.546;6.912;2022-07-10T12:38:54;6.50;;;2.40;;
13651;SDS011;6899;51.546;6.912;2022-07-10T12:41:23;4.43;;;2.22;;
13651;SDS011;6899;51.546;6.912;2022-07-10T12:43:51;4.75;;;2.30;;
13651;SDS011;6899;51.546;6.912;2022-07-10T12:46:20;4.97;;;2.40;;
13651;SDS011;6899;51.546;6.912;2022-07-10T12:49:00;2.38;;;1.95;;
13651;SDS011;6899;51.546;6.912;2022-07-10T12:51:29;4.30;;;1.83;;
13651;SDS011;6899;51.546;6.912;2022-07-10T12:53:56;4.05;;;2.20;;
13651;SDS011;6899;51.546;6.912;2022-07-10T12:56:27;4.43;;;1.92;;
13651;SDS011;6899;51.546;6.912;2022-07-10T12:59:12;3.85;;;2.35;;
13651;SDS011;6899;51.546;6.912;2022-07-10T13:01:40;5.28;;;3.40;;
13651;SDS011;6899;51.546;6.912;2022-07-10T13:04:08;4.40;;;1.90;;
13651;SDS011;6899;51.546;6.912;2022-07-10T13:06:36;4.90;;;1.83;;
13651;SDS011;6899;51.546;6.912;2022-07-10T13:09:17;4.93;;;2.00;;
13651;SDS011;6899;51.546;6.912;2022-07-10T13:11:45;3.17;;;2.10;;
13651;SDS011;6899;51.546;6.912;2022-07-10T13:14:13;2.72;;;1.70;;
13651;SDS011;6899;51.546;6.912;2022-07-10T13:16:40;3.80;;;1.88;;
13651;SDS011;6899;51.546;6.912;2022-07-10T13:19:07;2.17;;;1.85;;
13651;SDS011;6899;51.546;6.912;2022-07-10T13:21:34;3.20;;;1.65;;
13651;SDS011;6899;51.546;6.912;2022-07-10T13:24:02;3.97;;;1.70;;
13651;SDS011;6899;51.546;6.912;2022-07-10T13:26:29;2.90;;;1.80;;
13651;SDS011;6899;51.546;6.912;2022-07-10T13:28:56;3.63;;;1.70;;
13651;SDS011;6899;51.546;6.912;2022-07-10T13:31:26;4.60;;;2.10;;
13651;SDS011;6899;51.546;6.912;2022-07-10T13:33:53;4.72;;;2.00;;
13651;SDS011;6899;51.546;6.912;2022-07-10T13:36:21;3.88;;;1.80;;
13651;SDS011;6899;51.546;6.912;2022-07-10T13:38:50;3.80;;;2.03;;
13651;SDS011;6899;51.546;6.912;2022-07-10T13:41:19;2.45;;;2.05;;
13651;SDS011;6899;51.546;6.912;2022-07-10T13:43:46;2.35;;;1.60;;
13651;SDS011;6899;51.546;6.912;2022-07-10T13:46:13;2.60;;;1.45;;
13651;SDS011;6899;51.546;6.912;2022-07-10T13:48:41;3.10;;;1.58;;
13651;SDS011;6899;51.546;6.912;2022-07-10T13:51:09;2.53;;;1.77;;
13651;SDS011;6899;51.546;6.912;2022-07-10T13:53:36;3.72;;;2.00;;
13651;SDS011;6899;51.546;6.912;2022-07-10T13:56:04;2.25;;;1.48;;
13651;SDS011;6899;51.546;6.912;2022-07-10T13:58:31;2.22;;;1.63;;
13651;SDS011;6899;51.546;6.912;2022-07-10T14:00:58;3.10;;;1.88;;
13651;SDS011;6899;51.546;6.912;2022-07-10T14:03:25;3.60;;;2.60;;
13651;SDS011;6899;51.546;6.912;2022-07-10T14:05:53;4.97;;;2.33;;
13651;SDS011;6899;51.546;6.912;2022-07-10T14:08:20;3.83;;;2.30;;
13651;SDS011;6899;51.546;6.912;2022-07-10T14:10:47;4.47;;;2.10;;
13651;SDS011;6899;51.546;6.912;2022-07-10T14:13:14;3.03;;;2.17;;
13651;SDS011;6899;51.546;6.912;2022-07-10T14:15:42;4.68;;;2.33;;
13651;SDS011;6899;51.546;6.912;2022-07-10T14:18:10;2.80;;;2.03;;
13651;SDS011;6899;51.546;6.912;2022-07-10T14:20:37;4.47;;;2.65;;
13651;SDS011;6899;51.546;6.912;2022-07-10T14:23:23;2.05;;;1.85;;
13651;SDS011;6899;51.546;6.912;2022-07-10T14:25:50;3.92;;;2.30;;
13651;SDS011;6899;51.546;6.912;2022-07-10T14:28:17;2.63;;;1.85;;
13651;SDS011;6899;51.546;6.912;2022-07-10T14:30:44;1.83;;;1.42;;
13651;SDS011;6899;51.546;6.912;2022-07-10T14:33:12;2.63;;;1.90;;
13651;SDS011;6899;51.546;6.912;2022-07-10T14:35:39;1.92;;;1.67;;
13651;SDS011;6899;51.546;6.912;2022-07-10T14:38:05;2.20;;;1.70;;
13651;SDS011;6899;51.546;6.912;2022-07-10T14:40:34;2.17;;;1.83;;
13651;SDS011;6899;51.546;6.912;2022-07-10T14:43:01;4.35;;;2.13;;
13651;SDS011;6899;51.546;6.912;2022-07-10T14:45:27;5.05;;;2.47;;
13651;SDS011;6899;51.546;6.912;2022-07-10T14:47:54;3.28;;;1.73;;
13651;SDS011;6899;51.546;6.912;2022-07-10T14:50:22;2.38;;;1.70;;
13651;SDS011;6899;51.546;6.912;2022-07-10T14:52:50;3.05;;;1.65;;
13651;SDS011;6899;51.546;6.912;2022-07-10T14:55:17;3.83;;;1.50;;
13651;SDS011;6899;51.546;6.912;2022-07-10T14:57:46;2.65;;;1.80;;
13651;SDS011;6899;51.546;6.912;2022-07-10T15:00:13;5.65;;;2.10;;
13651;SDS011;6899;51.546;6.912;2022-07-10T15:02:42;3.08;;;1.42;;
13651;SDS011;6899;51.546;6.912;2022-07-10T15:05:09;3.53;;;1.63;;
13651;SDS011;6899;51.546;6.912;2022-07-10T15:07:36;3.47;;;1.42;;
13651;SDS011;6899;51.546;6.912;2022-07-10T15:10:03;3.00;;;1.55;;
13651;SDS011;6899;51.546;6.912;2022-07-10T15:12:30;3.30;;;1.70;;
13651;SDS011;6899;51.546;6.912;2022-07-10T15:15:01;2.75;;;1.65;;
13651;SDS011;6899;51.546;6.912;2022-07-10T15:17:28;2.30;;;1.50;;
13651;SDS011;6899;51.546;6.912;2022-07-10T15:19:55;2.53;;;1.52;;
13651;SDS011;6899;51.546;6.912;2022-07-10T15:22:22;1.50;;;1.40;;
13651;SDS011;6899;51.546;6.912;2022-07-10T15:24:49;2.38;;;1.30;;